Time;durP1;ratioP1;P1;durP2;ratioP2;P2;SDS_P1;SDS_P2;PMS_P1;PMS_P2;Temp;Humidity;BMP_temperature;BMP_pressure;BME280_temperature;BME280_humidity;BME280_pressure;Samples;Min_cycle;Max_cycle;Signal;HPM_P1;HPM_P2
2021/01/10 00:00:38;;;;;;;0.40;0.40;;;0.40;99.90;;;;;;5087692;28;20557;-91
2021/01/10 00:03:05;;;;;;;0.30;0.30;;;0.50;99.90;;;;;;5086211;28;20043;-91
2021/01/10 00:05:33;;;;;;;0.30;0.30;;;0.40;99.90;;;;;;5086307;28;20027;-91
2021/01/10 00:08:00;;;;;;;0.35;0.35;;;0.20;99.90;;;;;;5089097;28;20165;-91
2021/01/10 00:10:27;;;;;;;2.35;1.45;;;0.30;99.90;;;;;;5090055;28;20028;-91
2021/01/10 00:13:01;;;;;;;0.63;0.63;;;0.30;99.90;;;;;;5080218;28;20487;-92
2021/01/10 00:15:27;;;;;;;0.30;0.30;;;0.40;99.90;;;;;;5080588;28;20500;-92
2021/01/10 00:17:53;;;;;;;0.20;0.20;;;0.20;99.90;;;;;;5080274;28;20544;-91
2021/01/10 00:20:19;;;;;;;1.00;1.00;;;0.30;99.90;;;;;;5078283;28;20116;-91
2021/01/10 00:22:50;;;;;;;0.40;0.40;;;0.20;99.90;;;;;;5094457;28;20062;-91
2021/01/10 00:25:15;;;;;;;0.80;0.80;;;0.30;99.90;;;;;;5095401;28;20050;-91
2021/01/10 00:27:50;;;;;;;0.20;0.20;;;0.10;99.90;;;;;;5083642;28;20032;-92
2021/01/10 00:30:22;;;;;;;0.38;0.38;;;0.30;99.90;;;;;;5074579;28;20021;-92
2021/01/10 00:32:54;;;;;;;0.43;0.43;;;0.00;99.90;;;;;;5081687;28;20027;-92
2021/01/10 00:35:27;;;;;;;0.55;0.55;;;0.20;99.90;;;;;;5090075;28;20483;-92
2021/01/10 00:37:54;;;;;;;0.10;0.10;;;0.30;99.90;;;;;;5095706;28;20043;-93
2021/01/10 00:40:21;;;;;;;0.80;0.75;;;0.00;99.90;;;;;;5096293;28;20027;-90
2021/01/10 00:42:47;;;;;;;;;;;0.00;99.90;;;;;;5096381;28;20506;-91
2021/01/10 00:45:14;;;;;;;0.10;0.10;;;0.10;99.90;;;;;;5081270;28;19907;-92
2021/01/10 00:47:40;;;;;;;7.65;0.95;;;0.00;99.90;;;;;;5083293;28;20044;-90
2021/01/10 00:50:08;;;;;;;0.10;0.10;;;-0.10;99.90;;;;;;5090994;28;20039;-92
2021/01/10 00:52:35;;;;;;;0.28;0.28;;;0.00;99.90;;;;;;5081987;28;20029;-91
2021/01/10 00:55:00;;;;;;;1.98;0.77;;;0.10;99.90;;;;;;5090239;28;20039;-90
2021/01/10 00:57:26;;;;;;;0.40;0.40;;;0.00;99.90;;;;;;5080247;28;20028;-90
2021/01/10 01:00:01;;;;;;;0.30;0.30;;;-0.20;99.90;;;;;;5088027;28;20384;-91
2021/01/10 01:02:30;;;;;;;0.10;0.10;;;-0.10;99.90;;;;;;5089015;28;20021;-90
2021/01/10 01:04:59;;;;;;;0.35;0.35;;;-0.20;99.90;;;;;;5085616;28;20139;-90
2021/01/10 01:07:32;;;;;;;0.10;0.10;;;-0.10;99.90;;;;;;5083366;28;20504;-91
2021/01/10 01:09:57;;;;;;;1.67;1.17;;;-0.20;99.90;;;;;;5089113;28;20032;-90
2021/01/10 01:12:23;;;;;;;2.30;2.13;;;-0.20;99.90;;;;;;5092299;28;20028;-89
2021/01/10 01:14:49;;;;;;;0.30;0.30;;;-0.20;99.90;;;;;;5091204;28;20024;-91
2021/01/10 01:17:15;;;;;;;1.05;1.05;;;-0.20;99.90;;;;;;5079696;28;20170;-90
2021/01/10 01:19:41;;;;;;;0.60;0.60;;;0.10;99.90;;;;;;5092993;28;20108;-92
2021/01/10 01:22:06;;;;;;;0.40;0.40;;;0.10;99.90;;;;;;5081815;28;20047;-92
2021/01/10 01:24:32;;;;;;;0.10;0.10;;;-0.10;99.90;;;;;;5094086;28;20031;-92
2021/01/10 01:27:01;;;;;;;0.10;0.10;;;-0.10;99.90;;;;;;5089001;28;20017;-93
2021/01/10 01:29:32;;;;;;;0.50;0.50;;;-0.40;99.90;;;;;;5093248;28;20024;-91
2021/01/10 01:32:12;;;;;;;0.25;0.25;;;-0.40;99.90;;;;;;5091909;28;20024;-92
2021/01/10 01:34:40;;;;;;;0.57;0.57;;;-0.50;99.90;;;;;;5084612;28;20033;-92
2021/01/10 01:37:06;;;;;;;0.65;0.65;;;-0.70;99.90;;;;;;5085495;28;20081;-91
2021/01/10 01:39:32;;;;;;;0.10;0.10;;;-0.60;99.90;;;;;;5084519;28;20028;-92
2021/01/10 01:41:58;;;;;;;0.35;0.35;;;-0.70;99.90;;;;;;5089818;28;20024;-92
2021/01/10 01:44:23;;;;;;;0.10;0.10;;;-0.70;99.90;;;;;;5087068;28;20028;-91
2021/01/10 01:46:50;;;;;;;0.20;0.20;;;-0.40;99.90;;;;;;5080912;28;20082;-91
2021/01/10 01:49:16;;;;;;;0.20;0.20;;;-0.50;99.90;;;;;;5080631;28;20031;-91
2021/01/10 01:51:42;;;;;;;0.10;0.10;;;-0.40;99.90;;;;;;5074844;28;20056;-91
2021/01/10 01:54:08;;;;;;;0.10;0.10;;;-0.70;99.90;;;;;;5082413;28;20039;-92
2021/01/10 01:56:34;;;;;;;0.77;0.77;;;-0.70;99.90;;;;;;5074905;28;20044;-92
2021/01/10 01:59:07;;;;;;;0.28;0.28;;;-0.60;99.90;;;;;;5078041;28;20134;-92
2021/01/10 02:01:39;;;;;;;1.20;1.10;;;-0.90;99.90;;;;;;5077624;28;20036;-91
2021/01/10 02:04:41;;;;;;;0.17;0.17;;;-0.90;99.90;;;;;;5090758;28;20028;-94
2021/01/10 02:07:17;;;;;;;0.10;0.10;;;-0.80;99.90;;;;;;5076936;28;20480;-94
2021/01/10 02:09:47;;;;;;;0.55;0.55;;;-0.80;99.90;;;;;;5094382;28;20139;-94
2021/01/10 02:12:14;;;;;;;0.57;0.45;;;-0.90;99.90;;;;;;5084242;28;20058;-93
2021/01/10 02:15:06;;;;;;;1.15;0.70;;;-0.80;99.90;;;;;;5092335;28;20039;-94
2021/01/10 02:17:33;;;;;;;0.20;0.20;;;-0.70;99.90;;;;;;5079597;28;20083;-91
2021/01/10 02:20:14;;;;;;;0.13;0.13;;;-0.70;99.90;;;;;;5090687;28;20024;-93
2021/01/10 02:22:50;;;;;;;0.20;0.20;;;-0.70;99.90;;;;;;5082854;28;20044;-92
2021/01/10 02:25:16;;;;;;;0.70;0.70;;;-0.80;99.90;;;;;;5085765;28;20017;-94
2021/01/10 02:27:47;;;;;;;0.10;0.10;;;-0.80;99.90;;;;;;5087221;28;20058;-94
2021/01/10 02:30:15;;;;;;;0.10;0.10;;;-0.60;99.90;;;;;;5079313;28;20073;-93
2021/01/10 02:32:46;;;;;;;0.20;0.20;;;-0.90;99.90;;;;;;5089459;28;20035;-93
2021/01/10 02:35:17;;;;;;;0.22;0.22;;;-0.90;99.90;;;;;;5078910;28;20024;-94
2021/01/10 02:38:22;;;;;;;0.45;0.45;;;-1.00;99.90;;;;;;5089583;28;20081;-94
2021/01/10 02:41:14;;;;;;;1.20;1.13;;;-1.10;99.90;;;;;;5074272;28;20028;-94
2021/01/10 02:44:02;;;;;;;1.27;0.60;;;-1.10;99.90;;;;;;5085950;28;20028;-94
2021/01/10 02:46:28;;;;;;;0.15;0.15;;;-1.20;99.90;;;;;;5088272;28;20051;-93
2021/01/10 02:48:54;;;;;;;1.00;1.00;;;-1.30;99.90;;;;;;5092429;28;20034;-91
2021/01/10 02:51:20;;;;;;;0.40;0.40;;;-1.10;99.90;;;;;;5093029;28;20048;-92
2021/01/10 02:53:46;;;;;;;1.23;1.13;;;-1.10;99.90;;;;;;5092539;28;20039;-92
2021/01/10 02:56:12;;;;;;;0.20;0.20;;;-1.20;99.90;;;;;;5093637;28;20038;-93
2021/01/10 02:58:49;;;;;;;0.20;0.20;;;-1.00;99.90;;;;;;5093307;28;20028;-92
2021/01/10 03:01:26;;;;;;;0.13;0.13;;;-1.10;99.90;;;;;;5093119;28;20149;-93
2021/01/10 03:03:56;;;;;;;1.25;1.23;;;-1.10;99.90;;;;;;5077562;28;20115;-92
2021/01/10 03:06:22;;;;;;;0.10;0.10;;;-0.90;99.90;;;;;;5081997;28;20059;-92
2021/01/10 03:08:49;;;;;;;0.23;0.23;;;-0.70;99.90;;;;;;5092361;28;20069;-94
2021/01/10 03:11:16;;;;;;;0.20;0.20;;;-0.80;99.90;;;;;;5092880;28;20273;-94
2021/01/10 03:13:42;;;;;;;0.10;0.10;;;-0.90;99.90;;;;;;5093718;28;20547;-94
2021/01/10 03:16:08;;;;;;;0.52;0.52;;;-0.80;99.90;;;;;;5093701;28;20077;-94
2021/01/10 03:18:34;;;;;;;0.32;0.32;;;-0.70;99.90;;;;;;5093262;28;20024;-93
2021/01/10 03:21:00;;;;;;;1.30;0.80;;;-0.80;99.90;;;;;;5081435;28;20373;-93
2021/01/10 03:23:26;;;;;;;0.75;0.75;;;-0.60;99.90;;;;;;5073188;28;20119;-94
2021/01/10 03:25:52;;;;;;;0.10;0.10;;;-0.60;99.90;;;;;;5072989;28;20078;-93
2021/01/10 03:28:17;;;;;;;0.30;0.30;;;-0.80;99.90;;;;;;5072766;28;20055;-93
2021/01/10 03:30:45;;;;;;;0.40;0.40;;;-0.50;99.90;;;;;;5072507;28;20043;-93
2021/01/10 03:33:20;;;;;;;0.20;0.20;;;-0.60;99.90;;;;;;5075139;28;20020;-94
2021/01/10 03:35:50;;;;;;;0.40;0.40;;;-0.90;99.90;;;;;;5091898;28;20478;-93
2021/01/10 03:38:16;;;;;;;0.30;0.30;;;-0.80;99.90;;;;;;5090369;28;20033;-93
2021/01/10 03:40:41;;;;;;;1.17;0.68;;;-0.80;99.90;;;;;;5084246;28;20403;-92
2021/01/10 03:43:07;;;;;;;0.20;0.20;;;-0.80;99.90;;;;;;5092237;28;20408;-93
2021/01/10 03:45:33;;;;;;;0.57;0.57;;;-1.00;99.90;;;;;;5092314;28;20498;-93
2021/01/10 03:47:59;;;;;;;0.63;0.63;;;-1.00;99.90;;;;;;5091492;28;20016;-93
2021/01/10 03:50:25;;;;;;;0.20;0.20;;;-0.90;99.90;;;;;;5081940;28;20032;-93
2021/01/10 03:52:51;;;;;;;0.45;0.45;;;-0.80;99.90;;;;;;5087676;28;20380;-94
2021/01/10 03:55:17;;;;;;;0.38;0.38;;;-0.80;99.90;;;;;;5090168;28;20024;-93
2021/01/10 03:57:42;;;;;;;0.13;0.13;;;-0.80;99.90;;;;;;5080421;28;20070;-93
2021/01/10 04:00:10;;;;;;;0.57;0.57;;;-0.80;99.90;;;;;;5081034;28;20063;-92
2021/01/10 04:02:39;;;;;;;0.10;0.10;;;-0.90;99.90;;;;;;5081910;28;20028;-93
2021/01/10 04:05:12;;;;;;;0.57;0.57;;;-0.90;99.90;;;;;;5084366;28;20024;-93
2021/01/10 04:07:43;;;;;;;0.10;0.10;;;-1.00;99.90;;;;;;5071486;28;20388;-93
2021/01/10 04:10:09;;;;;;;0.20;0.20;;;-1.00;99.90;;;;;;5069716;28;20032;-93
2021/01/10 04:12:35;;;;;;;0.20;0.20;;;-0.80;99.90;;;;;;5076166;28;20047;-93
2021/01/10 04:15:01;;;;;;;0.13;0.13;;;-1.00;99.90;;;;;;5090533;28;20296;-93
2021/01/10 04:17:27;;;;;;;0.65;0.55;;;-1.00;99.90;;;;;;5091439;28;20028;-93
2021/01/10 04:19:53;;;;;;;1.65;1.38;;;-0.90;99.90;;;;;;5092340;28;20020;-92
2021/01/10 04:22:20;;;;;;;0.30;0.30;;;-0.70;99.90;;;;;;5091940;28;20032;-94
2021/01/10 04:24:46;;;;;;;0.20;0.20;;;-1.00;99.90;;;;;;5092520;28;20028;-93
2021/01/10 04:27:11;;;;;;;0.15;0.15;;;-1.00;99.90;;;;;;5078278;28;20380;-93
2021/01/10 04:29:37;;;;;;;0.13;0.13;;;-1.10;99.90;;;;;;5088190;28;20114;-93
2021/01/10 04:32:03;;;;;;;1.40;1.30;;;-0.80;99.90;;;;;;5078698;28;20040;-94
2021/01/10 04:34:34;;;;;;;0.30;0.30;;;-0.70;99.90;;;;;;5072209;28;20082;-92
2021/01/10 04:37:02;;;;;;;1.13;1.08;;;-0.70;99.90;;;;;;5086568;28;20028;-93
2021/01/10 04:39:32;;;;;;;2.17;0.57;;;-0.70;99.90;;;;;;5089444;28;20099;-94
2021/01/10 04:41:58;;;;;;;0.95;0.95;;;-0.70;99.90;;;;;;5091973;28;20081;-93
2021/01/10 04:44:24;;;;;;;0.10;0.10;;;-0.60;99.90;;;;;;5082375;28;20020;-93
2021/01/10 04:46:50;;;;;;;1.42;1.35;;;-0.70;99.90;;;;;;5087027;28;20020;-93
2021/01/10 04:49:18;;;;;;;0.10;0.10;;;-0.80;99.90;;;;;;5079217;28;20066;-92
2021/01/10 04:51:46;;;;;;;0.20;0.20;;;-0.60;99.90;;;;;;5075763;28;20068;-92
2021/01/10 04:54:13;;;;;;;0.10;0.10;;;-0.70;99.90;;;;;;5071778;28;20381;-93
2021/01/10 04:56:42;;;;;;;0.10;0.10;;;-0.80;99.90;;;;;;5072088;28;20032;-93
2021/01/10 04:59:07;;;;;;;0.50;0.50;;;-0.80;99.90;;;;;;5077324;28;20056;-93
2021/01/10 05:01:45;;;;;;;0.47;0.47;;;-0.90;99.90;;;;;;5075910;28;20037;-93
2021/01/10 05:04:20;;;;;;;0.50;0.50;;;-1.00;99.90;;;;;;5083371;28;20031;-93
2021/01/10 05:06:54;;;;;;;0.10;0.10;;;-0.90;99.90;;;;;;5077068;28;20078;-93
2021/01/10 05:09:24;;;;;;;0.10;0.10;;;-0.90;99.90;;;;;;5094231;28;20024;-94
2021/01/10 05:11:50;;;;;;;0.10;0.10;;;-1.00;99.90;;;;;;5092577;28;20036;-93
2021/01/10 05:14:16;;;;;;;0.15;0.15;;;-1.40;99.90;;;;;;5092939;28;20034;-94
2021/01/10 05:16:42;;;;;;;3.72;0.90;;;-1.30;99.90;;;;;;5073459;28;20032;-94
2021/01/10 05:19:08;;;;;;;1.80;1.67;;;-1.10;99.90;;;;;;5085101;28;20073;-93
2021/01/10 05:21:34;;;;;;;0.50;0.50;;;-1.20;99.90;;;;;;5081151;28;20037;-92
2021/01/10 05:24:00;;;;;;;0.57;0.57;;;-1.40;99.90;;;;;;5079253;28;20100;-93
2021/01/10 05:26:34;;;;;;;2.70;2.57;;;-1.40;99.90;;;;;;5078446;28;20023;-93
2021/01/10 05:29:07;;;;;;;1.08;1.00;;;-1.40;99.90;;;;;;5088811;28;20055;-92
2021/01/10 05:31:35;;;;;;;0.35;0.35;;;-1.40;99.90;;;;;;5083520;28;20565;-92
2021/01/10 05:34:01;;;;;;;0.93;0.93;;;-1.40;99.90;;;;;;5089387;28;20035;-93
2021/01/10 05:36:31;;;;;;;0.60;0.60;;;-1.30;99.90;;;;;;5080883;28;20542;-91
2021/01/10 05:39:20;;;;;;;1.70;0.50;;;-1.30;99.90;;;;;;5076020;28;20039;-92
2021/01/10 05:42:05;;;;;;;0.10;0.10;;;-1.00;99.90;;;;;;5077122;28;20101;-93
2021/01/10 05:44:47;;;;;;;0.20;0.20;;;-1.20;99.90;;;;;;5089590;28;20074;-94
2021/01/10 05:47:18;;;;;;;0.20;0.20;;;-1.40;99.90;;;;;;5089003;28;20028;-93
2021/01/10 05:49:48;;;;;;;0.10;0.10;;;-1.40;99.90;;;;;;5085989;28;20403;-94
2021/01/10 05:52:15;;;;;;;0.77;0.77;;;-1.50;99.90;;;;;;5079847;28;20035;-93
2021/01/10 05:54:46;;;;;;;1.88;1.77;;;-1.50;99.90;;;;;;5084468;28;20028;-91
2021/01/10 05:57:13;;;;;;;0.20;0.20;;;-1.40;99.90;;;;;;5077506;28;20047;-93
2021/01/10 05:59:49;;;;;;;0.10;0.10;;;-1.40;99.90;;;;;;5082568;28;20060;-93
2021/01/10 06:02:34;;;;;;;0.50;0.50;;;-1.40;99.90;;;;;;5082510;28;20024;-94
2021/01/10 06:05:12;;;;;;;0.20;0.20;;;-1.40;99.90;;;;;;5080274;28;20040;-90
2021/01/10 06:07:45;;;;;;;0.20;0.20;;;-1.40;99.90;;;;;;5073644;28;20048;-89
2021/01/10 06:10:24;;;;;;;5.28;3.00;;;-1.30;99.90;;;;;;5073374;28;20078;-89
2021/01/10 06:13:08;;;;;;;0.20;0.20;;;-1.40;99.90;;;;;;5080411;28;20028;-90
2021/01/10 06:15:35;;;;;;;0.20;0.20;;;-1.50;99.90;;;;;;5091574;28;20058;-91
2021/01/10 06:18:01;;;;;;;;;;;-1.60;99.90;;;;;;5084235;28;20454;-90
2021/01/10 06:20:29;;;;;;;0.20;0.20;;;-1.60;99.90;;;;;;5073953;28;19904;-91
2021/01/10 06:22:56;;;;;;;2.20;1.10;;;-1.70;99.90;;;;;;5074852;28;20024;-92
2021/01/10 06:25:24;;;;;;;0.20;0.20;;;-1.80;99.90;;;;;;5073748;28;20021;-92
2021/01/10 06:28:12;;;;;;;1.67;1.58;;;-1.70;99.90;;;;;;5075310;28;20112;-90
2021/01/10 06:30:58;;;;;;;0.47;0.47;;;-2.10;99.90;;;;;;5093002;28;20395;-89
2021/01/10 06:33:31;;;;;;;0.52;0.52;;;-2.10;99.90;;;;;;5092126;28;20483;-91
2021/01/10 06:36:08;;;;;;;0.20;0.20;;;-2.20;99.90;;;;;;5086780;28;20369;-93
2021/01/10 06:38:36;;;;;;;0.25;0.17;;;-2.10;99.90;;;;;;5092827;28;20058;-94
2021/01/10 06:41:36;;;;;;;0.25;0.25;;;-2.30;99.90;;;;;;5078108;28;20146;-95
2021/01/10 06:44:08;;;;;;;0.75;0.75;;;-2.50;99.90;;;;;;5074126;28;20029;-95
2021/01/10 06:46:33;;;;;;;0.10;0.10;;;-2.40;99.90;;;;;;5075087;28;20033;-94
2021/01/10 06:49:06;;;;;;;0.20;0.20;;;-2.50;99.90;;;;;;5074928;28;20099;-95
2021/01/10 06:51:35;;;;;;;0.73;0.73;;;-2.30;99.90;;;;;;5093897;28;20106;-95
2021/01/10 06:54:05;;;;;;;0.20;0.20;;;-2.30;99.90;;;;;;5094069;28;20024;-95
2021/01/10 06:56:32;;;;;;;0.20;0.20;;;-2.20;99.90;;;;;;5094501;28;20122;-94
2021/01/10 06:59:04;;;;;;;0.20;0.20;;;-2.40;99.90;;;;;;5093406;28;20032;-93
2021/01/10 07:01:48;;;;;;;0.20;0.20;;;-2.50;99.90;;;;;;5093592;28;20035;-94
2021/01/10 07:04:16;;;;;;;0.10;0.10;;;-2.50;99.90;;;;;;5094038;28;20105;-94
2021/01/10 07:06:49;;;;;;;0.28;0.28;;;-2.60;99.90;;;;;;5094313;28;20028;-94
2021/01/10 07:09:16;;;;;;;4.55;1.40;;;-2.40;99.90;;;;;;5093646;28;20510;-94
2021/01/10 07:11:43;;;;;;;0.30;0.30;;;-2.40;99.90;;;;;;5093314;28;20089;-94
2021/01/10 07:14:09;;;;;;;;;;;-2.30;99.90;;;;;;5093939;28;20032;-95
2021/01/10 07:16:35;;;;;;;0.73;0.57;;;-2.00;99.90;;;;;;5095156;28;19953;-95
2021/01/10 07:19:03;;;;;;;0.43;0.43;;;-2.00;99.90;;;;;;5095129;28;20050;-91
2021/01/10 07:21:36;;;;;;;2.72;0.85;;;-2.00;99.90;;;;;;5093525;28;20395;-94
2021/01/10 07:24:14;;;;;;;0.20;0.20;;;-2.10;99.90;;;;;;5088156;28;20036;-91
2021/01/10 07:26:44;;;;;;;0.15;0.15;;;-2.10;99.90;;;;;;5078991;28;20119;-90
2021/01/10 07:29:28;;;;;;;0.15;0.15;;;-2.10;99.90;;;;;;5083680;28;20032;-91
2021/01/10 07:32:06;;;;;;;0.20;0.20;;;-2.20;99.90;;;;;;5080091;28;20024;-93
2021/01/10 07:34:34;;;;;;;0.30;0.30;;;-2.10;99.90;;;;;;5077348;28;20400;-91
2021/01/10 07:37:02;;;;;;;0.20;0.20;;;-2.10;99.90;;;;;;5072535;28;20115;-91
2021/01/10 07:39:30;;;;;;;0.52;0.52;;;-2.00;99.90;;;;;;5075222;28;20028;-90
2021/01/10 07:42:11;;;;;;;0.20;0.20;;;-2.10;99.90;;;;;;5083614;28;20028;-92
2021/01/10 07:44:59;;;;;;;0.20;0.20;;;-2.00;99.90;;;;;;5080074;28;20061;-92
2021/01/10 07:47:34;;;;;;;0.20;0.20;;;-1.90;99.90;;;;;;5077476;28;20036;-90
2021/01/10 07:50:12;;;;;;;0.25;0.25;;;-2.20;99.90;;;;;;5087677;28;20052;-90
2021/01/10 07:52:41;;;;;;;0.20;0.20;;;-2.00;99.90;;;;;;5090928;28;20051;-92
2021/01/10 07:55:31;;;;;;;0.20;0.20;;;-1.90;99.90;;;;;;5078284;28;20499;-92
2021/01/10 07:58:00;;;;;;;0.55;0.50;;;-1.80;99.90;;;;;;5080027;28;20032;-87
2021/01/10 08:00:51;;;;;;;1.40;1.15;;;-1.80;99.90;;;;;;5080156;28;20024;-88
2021/01/10 08:03:23;;;;;;;14.80;1.38;;;-1.50;99.90;;;;;;5075477;28;20070;-90
2021/01/10 08:05:56;;;;;;;2.83;0.82;;;-1.10;99.90;;;;;;5086098;28;20020;-89
2021/01/10 08:08:40;;;;;;;1.25;1.25;;;-0.40;99.90;;;;;;5077039;28;20036;-90
2021/01/10 08:11:08;;;;;;;0.10;0.10;;;0.80;99.90;;;;;;5094019;28;20036;-90
2021/01/10 08:13:41;;;;;;;0.82;0.82;;;1.30;99.90;;;;;;5085344;28;20379;-91
2021/01/10 08:16:11;;;;;;;0.30;0.30;;;1.50;99.90;;;;;;5072886;28;20040;-90
2021/01/10 08:18:42;;;;;;;0.40;0.40;;;1.60;99.90;;;;;;5080989;28;20043;-89
2021/01/10 08:21:10;;;;;;;0.20;0.20;;;2.20;99.90;;;;;;5083107;28;20590;-91
2021/01/10 08:23:37;;;;;;;0.55;0.55;;;2.60;99.90;;;;;;5086094;28;20529;-91
2021/01/10 08:26:11;;;;;;;;;;;2.30;99.90;;;;;;5079613;28;20512;-91
2021/01/10 08:28:39;;;;;;;0.20;0.20;;;2.70;99.90;;;;;;5087272;28;19904;-91
2021/01/10 08:31:08;;;;;;;0.10;0.10;;;2.50;99.90;;;;;;5081931;28;20035;-90
2021/01/10 08:33:34;;;;;;;0.98;0.63;;;0.70;99.90;;;;;;5088610;28;20024;-91
2021/01/10 08:36:19;;;;;;;0.30;0.30;;;-0.90;99.90;;;;;;5085490;28;20108;-92
2021/01/10 08:39:06;;;;;;;0.32;0.32;;;-1.10;99.90;;;;;;5078158;28;20035;-91
2021/01/10 08:41:37;;;;;;;0.35;0.35;;;-1.00;99.90;;;;;;5077862;28;20621;-90
2021/01/10 08:44:11;;;;;;;0.10;0.10;;;-0.90;99.90;;;;;;5083511;28;20400;-91
2021/01/10 08:46:39;;;;;;;0.25;0.25;;;2.50;99.90;;;;;;5103366;27;20032;-92
2021/01/10 08:49:05;;;;;;;0.30;0.30;;;3.90;99.90;;;;;;5088982;28;20090;-92
2021/01/10 08:51:41;;;;;;;0.30;0.30;;;5.40;99.90;;;;;;5081886;28;20511;-92
2021/01/10 08:54:16;;;;;;;0.20;0.20;;;3.80;99.90;;;;;;5067677;28;20032;-91
2021/01/10 08:56:44;;;;;;;0.10;0.10;;;2.20;99.90;;;;;;5089421;28;20117;-92
2021/01/10 08:59:11;;;;;;;0.17;0.17;;;0.90;99.90;;;;;;5089205;28;20043;-91
2021/01/10 09:01:38;;;;;;;0.20;0.20;;;-0.40;99.90;;;;;;5070627;28;20515;-91
2021/01/10 09:04:09;;;;;;;0.30;0.30;;;-0.60;99.90;;;;;;5082679;28;20016;-92
2021/01/10 09:06:54;;;;;;;0.20;0.20;;;-0.60;99.90;;;;;;5085509;28;20400;-93
2021/01/10 09:09:53;;;;;;;0.30;0.30;;;-0.60;99.90;;;;;;5082894;28;20027;-92
2021/01/10 09:12:38;;;;;;;0.65;0.43;;;-0.10;99.90;;;;;;5088493;28;20092;-93
2021/01/10 09:15:11;;;;;;;0.90;0.90;;;-0.80;99.90;;;;;;5085400;28;20459;-90
2021/01/10 09:17:42;;;;;;;0.20;0.20;;;-1.00;99.90;;;;;;5101243;28;20048;-91
2021/01/10 09:20:13;;;;;;;1.30;1.20;;;-0.90;99.90;;;;;;5085336;28;20032;-93
2021/01/10 09:22:39;;;;;;;0.30;0.30;;;-1.00;99.90;;;;;;5095562;28;20028;-93
2021/01/10 09:25:15;;;;;;;1.25;1.15;;;-0.40;99.90;;;;;;5075256;28;20113;-95
2021/01/10 09:28:09;;;;;;;0.47;0.47;;;-0.20;99.90;;;;;;5075100;28;20107;-94
2021/01/10 09:30:41;;;;;;;0.13;0.13;;;0.20;99.90;;;;;;5090417;28;20128;-93
2021/01/10 09:33:08;;;;;;;0.22;0.17;;;1.50;99.90;;;;;;5083450;28;20063;-92
2021/01/10 09:35:43;;;;;;;;;;;2.30;99.90;;;;;;5076953;28;20035;-91
2021/01/10 09:38:14;;;;;;;0.10;0.10;;;4.00;99.90;;;;;;5074796;28;20398;-90
2021/01/10 09:41:05;;;;;;;0.30;0.30;;;5.60;99.90;;;;;;5083423;28;20361;-91
2021/01/10 09:43:40;;;;;;;0.75;0.75;;;5.50;99.90;;;;;;5091517;28;20025;-91
2021/01/10 09:46:25;;;;;;;0.30;0.30;;;4.90;99.90;;;;;;5078928;28;20024;-94
2021/01/10 09:48:58;;;;;;;3.33;0.73;;;4.70;99.90;;;;;;5087202;28;20070;-93
2021/01/10 09:51:33;;;;;;;0.20;0.20;;;1.70;99.90;;;;;;5095452;28;20062;-91
2021/01/10 09:54:15;;;;;;;1.15;1.10;;;1.50;99.90;;;;;;5074676;28;20025;-92
2021/01/10 09:57:04;;;;;;;0.20;0.20;;;0.80;99.90;;;;;;5076346;28;20105;-93
2021/01/10 09:59:39;;;;;;;0.40;0.40;;;1.40;99.90;;;;;;5106897;28;20028;-90
2021/01/10 10:02:18;;;;;;;0.43;0.43;;;2.30;99.90;;;;;;5074697;28;20028;-92
2021/01/10 10:04:46;;;;;;;0.38;0.38;;;2.70;99.90;;;;;;5084461;28;20435;-93
2021/01/10 10:07:13;;;;;;;0.30;0.30;;;6.30;99.90;;;;;;5084060;28;20423;-92
2021/01/10 10:09:53;;;;;;;0.38;0.38;;;7.50;99.90;;;;;;5095048;28;20422;-95
2021/01/10 10:12:21;;;;;;;0.20;0.20;;;6.70;99.90;;;;;;5085076;28;20024;-94
2021/01/10 10:14:56;;;;;;;0.20;0.20;;;6.50;99.90;;;;;;5074687;28;20051;-95
2021/01/10 10:17:26;;;;;;;0.10;0.10;;;6.60;99.90;;;;;;5077213;28;20529;-94
2021/01/10 10:19:52;;;;;;;0.30;0.30;;;6.70;99.90;;;;;;5094413;28;20024;-94
2021/01/10 10:22:26;;;;;;;1.13;0.77;;;6.60;99.90;;;;;;5080346;28;20023;-90
2021/01/10 10:24:53;;;;;;;0.38;0.38;;;6.70;99.90;;;;;;5086891;28;20020;-91
2021/01/10 10:27:19;;;;;;;0.20;0.20;;;7.10;99.90;;;;;;5101392;28;20023;-95
2021/01/10 10:30:07;;;;;;;0.20;0.20;;;7.10;99.90;;;;;;5086459;28;20120;-91
2021/01/10 10:35:49;;;;;;;0.30;0.30;;;6.70;99.90;;;;;;5078143;28;20039;-95
2021/01/10 10:38:22;;;;;;;0.38;0.38;;;6.10;99.90;;;;;;5097312;28;20047;-94
2021/01/10 10:40:50;;;;;;;0.10;0.10;;;6.50;99.90;;;;;;5083364;28;20025;-95
2021/01/10 10:43:17;;;;;;;1.25;1.05;;;6.50;99.90;;;;;;5089979;28;20086;-94
2021/01/10 10:45:43;;;;;;;0.50;0.50;;;6.90;99.90;;;;;;5088582;28;20040;-95
2021/01/10 10:48:09;;;;;;;0.20;0.20;;;6.50;99.90;;;;;;5093434;28;20028;-93
2021/01/10 10:50:35;;;;;;;1.08;0.98;;;6.70;99.90;;;;;;5083524;28;20040;-96
2021/01/10 10:53:06;;;;;;;0.43;0.43;;;6.60;99.90;;;;;;5095890;28;20028;-95
2021/01/10 10:55:34;;;;;;;0.40;0.40;;;7.10;99.90;;;;;;5088027;28;20354;-93
2021/01/10 10:58:00;;;;;;;0.52;0.52;;;6.50;99.90;;;;;;5075047;28;20040;-95
2021/01/10 11:00:26;;;;;;;0.28;0.28;;;6.50;99.90;;;;;;5075504;28;20028;-95
2021/01/10 11:02:54;;;;;;;0.17;0.17;;;6.30;99.90;;;;;;5074740;28;20476;-94
2021/01/10 11:05:22;;;;;;;0.77;0.77;;;6.10;99.90;;;;;;5077178;28;20056;-94
2021/01/10 11:07:50;;;;;;;0.20;0.20;;;6.70;99.90;;;;;;5094012;28;20110;-93
2021/01/10 11:10:19;;;;;;;0.30;0.30;;;7.10;99.90;;;;;;5094339;28;20024;-94
2021/01/10 11:16:11;;;;;;;0.20;0.20;;;6.90;99.90;;;;;;5096139;28;20036;-93
2021/01/10 11:19:39;;;;;;;0.40;0.40;;;6.90;99.90;;;;;;5087789;28;20063;-92
2021/01/10 11:21:57;;;;;;;0.20;0.20;;;5.90;99.90;;;;;;5084153;28;20032;-93
2021/01/10 11:24:23;;;;;;;0.20;0.20;;;6.20;99.90;;;;;;5110797;28;20045;-93
2021/01/10 11:26:51;;;;;;;0.45;0.45;;;7.20;99.90;;;;;;5091846;28;20024;-95
2021/01/10 11:29:17;;;;;;;0.20;0.20;;;7.00;99.90;;;;;;5110847;28;20110;-93
2021/01/10 11:31:43;;;;;;;2.90;0.52;;;7.00;99.90;;;;;;5092604;28;20063;-93
2021/01/10 11:34:11;;;;;;;0.10;0.10;;;7.40;99.90;;;;;;5090813;28;20035;-93
2021/01/10 11:36:45;;;;;;;1.17;0.52;;;7.30;99.90;;;;;;5089782;28;20078;-92
2021/01/10 11:39:12;;;;;;;0.10;0.10;;;7.20;99.90;;;;;;5087868;28;20031;-93
2021/01/10 11:41:45;;;;;;;0.30;0.30;;;8.20;99.90;;;;;;5089366;28;20487;-91
2021/01/10 11:44:12;;;;;;;0.40;0.40;;;8.60;99.90;;;;;;5073508;28;20480;-92
2021/01/10 11:46:41;;;;;;;0.32;0.32;;;8.90;99.90;;;;;;5072317;28;20066;-92
2021/01/10 11:49:08;;;;;;;2.28;1.02;;;10.60;99.90;;;;;;5072480;28;20025;-93
2021/01/10 11:51:34;;;;;;;0.50;0.50;;;8.80;99.90;;;;;;5072740;28;20095;-95
2021/01/10 11:53:59;;;;;;;0.20;0.20;;;11.40;99.90;;;;;;5084317;28;20036;-93
2021/01/10 11:56:25;;;;;;;1.30;1.27;;;12.70;99.90;;;;;;5092490;28;20027;-94
2021/01/10 11:58:51;;;;;;;0.10;0.10;;;13.80;99.90;;;;;;5073222;28;20029;-95
2021/01/10 12:01:17;;;;;;;0.88;0.80;;;13.70;99.90;;;;;;5082931;28;20091;-93
2021/01/10 12:03:43;;;;;;;0.20;0.20;;;9.50;99.90;;;;;;5083343;28;20031;-92
2021/01/10 12:06:09;;;;;;;0.10;0.10;;;5.20;99.90;;;;;;5095791;28;20020;-92
2021/01/10 12:08:40;;;;;;;0.30;0.30;;;3.80;99.90;;;;;;5083761;28;20561;-94
2021/01/10 12:11:24;;;;;;;0.65;0.60;;;3.70;99.90;;;;;;5076314;28;20082;-94
2021/01/10 12:13:58;;;;;;;0.13;0.13;;;3.60;99.90;;;;;;5091556;28;20028;-94
2021/01/10 12:16:37;;;;;;;0.30;0.30;;;3.40;99.90;;;;;;5092580;28;20032;-95
2021/01/10 12:19:10;;;;;;;1.40;1.15;;;3.30;99.90;;;;;;5086440;28;20029;-91
2021/01/10 12:21:48;;;;;;;2.72;1.15;;;3.40;99.90;;;;;;5075902;28;20086;-94
2021/01/10 12:24:16;;;;;;;0.20;0.20;;;3.50;99.90;;;;;;5084339;28;20020;-91
2021/01/10 12:26:43;;;;;;;0.40;0.40;;;3.30;99.90;;;;;;5092762;28;20052;-89
2021/01/10 12:29:09;;;;;;;0.68;0.68;;;3.30;99.90;;;;;;5084662;28;20387;-91
2021/01/10 12:31:49;;;;;;;0.52;0.52;;;3.40;99.90;;;;;;5099349;28;20032;-92
2021/01/10 12:34:15;;;;;;;0.35;0.35;;;3.50;99.90;;;;;;5092133;28;20028;-91
2021/01/10 12:36:41;;;;;;;0.38;0.38;;;3.50;99.90;;;;;;5086621;28;20028;-93
2021/01/10 12:39:12;;;;;;;0.70;0.70;;;3.40;99.90;;;;;;5083246;28;20514;-93
2021/01/10 12:41:38;;;;;;;0.17;0.17;;;3.40;99.90;;;;;;5093387;28;20274;-92
2021/01/10 12:44:04;;;;;;;0.20;0.20;;;3.30;99.90;;;;;;5086471;28;20023;-93
2021/01/10 12:46:30;;;;;;;0.82;0.82;;;3.30;99.90;;;;;;5078302;28;20460;-95
2021/01/10 12:49:01;;;;;;;0.38;0.38;;;3.30;99.90;;;;;;5080159;28;20020;-91
2021/01/10 12:51:35;;;;;;;0.10;0.10;;;3.30;99.90;;;;;;5073599;28;20041;-92
2021/01/10 12:54:01;;;;;;;0.55;0.55;;;3.40;99.90;;;;;;5085987;28;20433;-89
2021/01/10 12:56:27;;;;;;;0.75;0.75;;;3.50;99.90;;;;;;5084941;28;20032;-94
2021/01/10 13:40:57;;;;;;;0.17;0.17;;;3.50;99.90;;;;;;6072037;22;5803553;-94
2021/01/10 13:43:28;;;;;;;0.10;0.10;;;3.60;99.90;;;;;;6258827;22;20011;-92
2021/01/10 13:45:57;;;;;;;0.10;0.10;;;3.40;99.90;;;;;;6257789;22;20007;-93
2021/01/10 13:48:25;;;;;;;0.10;0.10;;;3.40;99.90;;;;;;6259656;22;20008;-92
2021/01/10 13:51:08;;;;;;;0.20;0.20;;;3.50;99.90;;;;;;6258500;22;20063;-92
2021/01/10 13:53:37;;;;;;;0.10;0.10;;;3.50;99.90;;;;;;6259668;22;20090;-93
2021/01/10 13:56:14;;;;;;;0.90;0.90;;;3.50;99.90;;;;;;6260368;22;20046;-91
2021/01/10 13:58:41;;;;;;;1.38;1.02;;;3.40;99.90;;;;;;6260944;22;20007;-92
2021/01/10 14:01:13;;;;;;;0.10;0.10;;;3.40;99.90;;;;;;6260306;22;20035;-92